createdAt,value
2022-08-17T00:02:09.864Z,21.45
2022-08-17T00:04:51.074Z,21.42
2022-08-17T00:07:17.671Z,21.38
2022-08-17T00:09:44.233Z,21.36
2022-08-17T00:12:42.177Z,21.38
2022-08-17T00:14:57.405Z,20.94
2022-08-17T00:17:24.154Z,21.31
2022-08-17T00:19:50.784Z,20.80
2022-08-17T00:22:31.261Z,20.80
2022-08-17T00:25:05.591Z,21.06
2022-08-17T00:27:32.132Z,21.25
2022-08-17T00:29:58.680Z,20.42
2022-08-17T00:33:15.073Z,20.73
2022-08-17T00:35:15.135Z,21.15
2022-08-17T00:37:42.133Z,21.15
2022-08-17T00:40:11.160Z,21.13
2022-08-17T00:42:38.397Z,21.14
2022-08-17T00:45:10.980Z,21.10
2022-08-17T00:47:37.812Z,21.09
2022-08-17T00:50:07.482Z,21.07
2022-08-17T00:52:43.307Z,21.00
2022-08-17T00:55:11.123Z,20.92
2022-08-17T00:57:44.967Z,20.73
2022-08-17T01:00:12.035Z,20.86
2022-08-17T01:02:44.189Z,20.82
2022-08-17T01:05:18.446Z,20.46
2022-08-17T01:07:47.823Z,20.78
2022-08-17T01:11:00.423Z,20.45
2022-08-17T01:13:05.555Z,20.59
2022-08-17T01:15:36.333Z,20.69
2022-08-17T01:18:06.622Z,20.66
2022-08-17T01:20:46.670Z,20.62
2022-08-17T01:23:16.469Z,20.56
2022-08-17T01:25:54.120Z,20.63
2022-08-17T01:28:52.556Z,18.86
2022-08-17T01:31:09.644Z,20.33
2022-08-17T01:33:37.154Z,20.48
2022-08-17T01:36:06.327Z,20.45
2022-08-17T01:38:34.845Z,20.44
2022-08-17T01:41:05.825Z,20.42
2022-08-17T01:43:43.557Z,19.75
2022-08-17T01:46:16.998Z,20.36
2022-08-17T01:48:47.275Z,20.07
2022-08-17T01:51:15.903Z,20.33
2022-08-17T01:53:47.525Z,20.13
2022-08-17T01:56:18.238Z,20.31
2022-08-17T01:58:44.902Z,20.29
2022-08-17T02:01:19.079Z,20.29
2022-08-17T02:03:59.488Z,19.57
2022-08-17T02:06:45.146Z,19.80
2022-08-17T02:09:25.284Z,19.31
2022-08-17T02:11:54.093Z,19.47
2022-08-17T02:14:20.926Z,20.19
2022-08-17T02:16:47.608Z,20.20
2022-08-17T02:19:16.326Z,19.99
2022-08-17T02:21:46.456Z,19.49
2022-08-17T02:25:00.026Z,20.06
2022-08-17T02:27:09.639Z,20.03
2022-08-17T02:29:37.188Z,19.28
2022-08-17T02:32:04.956Z,19.55
2022-08-17T02:34:32.429Z,19.94
2022-08-17T02:36:58.984Z,19.97
2022-08-17T02:39:25.608Z,19.46
2022-08-17T02:42:00.858Z,18.31
2022-08-17T02:44:39.417Z,19.87
2022-08-17T02:47:09.448Z,19.67
2022-08-17T02:49:36.062Z,18.36
2022-08-17T02:52:04.385Z,19.11
2022-08-17T02:54:40.818Z,18.72
2022-08-17T02:57:09.872Z,19.18
2022-08-17T02:59:37.627Z,19.77
2022-08-17T03:02:06.555Z,19.74
2022-08-17T03:04:35.126Z,19.73
2022-08-17T03:07:03.159Z,19.72
2022-08-17T03:09:29.880Z,19.72
2022-08-17T03:12:14.145Z,19.49
2022-08-17T03:14:42.326Z,19.75
2022-08-17T03:17:17.092Z,19.34
2022-08-17T03:19:44.280Z,19.71
2022-08-17T03:22:47.910Z,19.22
2022-08-17T03:24:57.725Z,19.65
2022-08-17T03:27:24.292Z,19.19
2022-08-17T03:29:50.947Z,19.67
2022-08-17T03:32:17.588Z,19.69
2022-08-17T03:34:44.140Z,19.70
2022-08-17T03:37:10.745Z,19.74
2022-08-17T03:39:38.139Z,19.74
2022-08-17T03:42:31.477Z,19.75
2022-08-17T03:45:00.493Z,19.76
2022-08-17T03:47:45.748Z,18.87
2022-08-17T03:50:33.372Z,18.05
2022-08-17T03:53:19.638Z,19.77
2022-08-17T03:56:04.901Z,19.56
2022-08-17T03:58:31.727Z,19.36
2022-08-17T04:00:58.387Z,19.36
2022-08-17T04:03:25.107Z,19.69
2022-08-17T04:05:51.670Z,19.71
2022-08-17T04:08:18.295Z,19.72
2022-08-17T04:10:45.436Z,19.61
2022-08-17T04:13:12.378Z,19.77
2022-08-17T04:15:39.019Z,19.62
2022-08-17T04:18:07.399Z,19.92
2022-08-17T04:20:34.381Z,19.75
2022-08-17T04:23:04.918Z,18.14
2022-08-17T04:25:34.349Z,19.93
2022-08-17T04:28:01.942Z,19.91
2022-08-17T04:30:32.141Z,19.87
2022-08-17T04:33:06.462Z,19.84
2022-08-17T04:35:40.309Z,19.83
2022-08-17T04:38:08.665Z,19.87
2022-08-17T04:40:54.205Z,18.90
2022-08-17T04:43:24.424Z,19.88
2022-08-17T04:45:55.611Z,19.94
2022-08-17T04:48:36.064Z,19.29
2022-08-17T04:51:13.536Z,20.01
2022-08-17T04:53:42.567Z,19.49
2022-08-17T04:56:15.923Z,20.23
2022-08-17T04:58:45.010Z,20.16
2022-08-17T05:01:11.847Z,20.19
2022-08-17T05:03:38.583Z,19.05
2022-08-17T05:06:05.904Z,20.06
2022-08-17T05:08:32.558Z,19.89
2022-08-17T05:11:00.262Z,20.80
2022-08-17T05:13:29.186Z,20.99
2022-08-17T05:16:01.424Z,21.13
2022-08-17T05:18:29.956Z,21.07
2022-08-17T05:20:57.128Z,21.28
2022-08-17T05:23:26.749Z,21.38
2022-08-17T05:26:10.316Z,21.48
2022-08-17T05:28:49.291Z,20.68
2022-08-17T05:31:17.914Z,21.72
2022-08-17T05:33:46.349Z,21.65
2022-08-17T05:36:43.414Z,21.01
2022-08-17T05:39:01.657Z,22.04
2022-08-17T05:41:28.205Z,22.04
2022-08-17T05:43:56.515Z,22.40
2022-08-17T05:46:35.658Z,21.07
2022-08-17T05:49:05.655Z,22.14
2022-08-17T05:51:39.748Z,22.16
2022-08-17T05:54:12.342Z,22.24
2022-08-17T05:57:11.325Z,22.35
2022-08-17T06:00:20.599Z,22.44
2022-08-17T06:03:19.956Z,22.60
2022-08-17T06:06:16.691Z,22.82
2022-08-17T06:08:53.344Z,22.27
2022-08-17T06:11:37.320Z,22.99
2022-08-17T06:14:31.598Z,22.97
2022-08-17T06:17:06.210Z,22.48
2022-08-17T06:19:54.642Z,23.16
2022-08-17T06:22:25.983Z,22.61
2022-08-17T06:25:02.518Z,23.35
2022-08-17T06:27:37.472Z,23.11
2022-08-17T06:30:21.477Z,23.63
2022-08-17T06:32:50.170Z,22.79
2022-08-17T06:35:28.900Z,23.72
2022-08-17T06:38:05.728Z,23.40
2022-08-17T06:40:47.353Z,24.02
2022-08-17T06:43:48.197Z,24.12
2022-08-17T06:46:30.815Z,23.03
2022-08-17T06:49:22.011Z,24.25
2022-08-17T06:52:42.294Z,24.37
2022-08-17T06:55:17.841Z,24.53
2022-08-17T06:57:47.672Z,24.71
2022-08-17T07:00:17.854Z,24.86
2022-08-17T07:02:56.324Z,24.98
2022-08-17T07:05:36.615Z,25.08
2022-08-17T07:08:29.331Z,25.08
2022-08-17T07:11:02.542Z,24.58
2022-08-17T07:13:31.816Z,25.29
2022-08-17T07:16:24.007Z,25.25
2022-08-17T07:18:53.077Z,25.08
2022-08-17T07:21:49.992Z,23.75
2022-08-17T07:24:43.343Z,25.65
2022-08-17T07:27:22.862Z,25.75
2022-08-17T07:29:57.520Z,25.88
2022-08-17T07:32:46.421Z,25.87
2022-08-17T07:35:18.245Z,26.21
2022-08-17T07:38:05.488Z,26.35
2022-08-17T07:40:57.863Z,26.45
2022-08-17T07:43:29.629Z,26.52
2022-08-17T07:46:25.176Z,26.58
2022-08-17T07:48:55.260Z,26.45
2022-08-17T07:51:31.217Z,26.75
2022-08-17T07:54:22.127Z,26.66
2022-08-17T07:56:55.037Z,26.95
2022-08-17T07:59:28.671Z,26.99
2022-08-17T08:02:08.108Z,27.06
2022-08-17T08:05:02.024Z,27.19
2022-08-17T08:07:34.637Z,27.21
2022-08-17T08:10:24.533Z,27.36
2022-08-17T08:13:10.569Z,27.47
2022-08-17T08:15:53.524Z,27.00
2022-08-17T08:18:38.595Z,27.75
2022-08-17T08:21:42.986Z,27.99
2022-08-17T08:24:20.472Z,27.71
2022-08-17T08:27:08.070Z,28.08
2022-08-17T08:30:08.441Z,28.19
2022-08-17T08:32:54.113Z,28.30
2022-08-17T08:35:43.410Z,28.50
2022-08-17T08:38:45.887Z,28.55
2022-08-17T08:41:52.979Z,28.95
2022-08-17T08:44:59.702Z,29.13
2022-08-17T08:47:51.307Z,29.19
2022-08-17T08:50:40.254Z,29.24
2022-08-17T08:53:32.794Z,29.41
2022-08-17T08:56:05.303Z,29.56
2022-08-17T08:58:53.402Z,29.72
2022-08-17T09:01:38.621Z,29.91
2022-08-17T09:04:25.928Z,30.06
2022-08-17T09:06:58.670Z,29.68
2022-08-17T09:09:59.497Z,30.12
2022-08-17T09:12:35.667Z,30.74
2022-08-17T09:15:14.441Z,30.63
2022-08-17T09:18:59.058Z,30.89
2022-08-17T09:20:57.469Z,30.84
2022-08-17T09:23:34.407Z,31.25
2022-08-17T09:26:10.133Z,30.41
2022-08-17T09:28:39.052Z,30.92
2022-08-17T09:31:15.862Z,30.87
2022-08-17T09:33:46.184Z,30.86
2022-08-17T09:36:37.341Z,31.00
2022-08-17T09:39:16.816Z,30.23
2022-08-17T09:41:52.936Z,29.76
2022-08-17T09:44:44.234Z,30.60
2022-08-17T09:47:17.480Z,29.86
2022-08-17T09:49:56.401Z,30.39
2022-08-17T09:52:26.233Z,30.33
2022-08-17T09:54:55.598Z,30.27
2022-08-17T09:57:47.448Z,30.63
2022-08-17T10:00:27.650Z,30.81
2022-08-17T10:03:16.767Z,31.10
2022-08-17T10:05:58.762Z,31.00
2022-08-17T10:08:47.893Z,31.28
2022-08-17T10:11:33.626Z,32.10
2022-08-17T10:14:36.801Z,32.30
2022-08-17T10:17:21.199Z,32.99
2022-08-17T10:20:00.422Z,33.34
2022-08-17T10:22:56.545Z,33.32
2022-08-17T10:25:54.506Z,33.31
2022-08-17T10:28:29.394Z,33.87
2022-08-17T10:31:30.821Z,33.83
2022-08-17T10:34:18.673Z,34.51
2022-08-17T10:36:58.022Z,34.99
2022-08-17T10:39:52.308Z,35.08
2022-08-17T10:42:34.660Z,34.88
2022-08-17T10:45:18.201Z,36.19
2022-08-17T10:48:22.206Z,35.71
2022-08-17T10:51:08.680Z,35.27
2022-08-17T10:53:35.203Z,35.66
2022-08-17T10:56:14.471Z,35.67
2022-08-17T10:58:55.967Z,35.71
2022-08-17T11:01:43.377Z,36.44
2022-08-17T11:04:18.875Z,36.96
2022-08-17T11:07:02.253Z,37.40
2022-08-17T11:09:35.241Z,37.85
2022-08-17T11:12:25.463Z,38.31
2022-08-17T11:15:16.214Z,38.68
2022-08-17T11:17:52.140Z,39.48
2022-08-17T11:20:24.807Z,38.90
2022-08-17T11:23:09.427Z,37.83
2022-08-17T11:25:43.819Z,37.30
2022-08-17T11:28:25.375Z,37.22
2022-08-17T11:31:01.365Z,37.33
2022-08-17T11:33:36.775Z,37.52
2022-08-17T11:37:01.789Z,35.62
2022-08-17T11:39:50.091Z,35.73
2022-08-17T11:42:54.178Z,39.08
2022-08-17T11:45:41.946Z,42.21
2022-08-17T11:49:11.521Z,40.85
2022-08-17T11:52:13.274Z,38.38
2022-08-17T11:54:46.771Z,36.47
2022-08-17T11:57:41.897Z,35.98
2022-08-17T12:00:46.762Z,35.26
2022-08-17T12:03:31.818Z,35.08
2022-08-17T12:06:17.639Z,34.74
2022-08-17T12:08:51.991Z,34.33
2022-08-17T12:11:57.832Z,34.69
2022-08-17T12:14:45.497Z,38.40
2022-08-17T12:17:39.305Z,42.35
2022-08-17T12:20:12.774Z,46.08
2022-08-17T12:22:53.699Z,47.87
2022-08-17T12:25:26.693Z,48.93
2022-08-17T12:28:05.447Z,50.69
2022-08-17T12:30:34.856Z,51.20
2022-08-17T12:33:01.565Z,51.53
2022-08-17T12:35:38.770Z,51.14
2022-08-17T12:38:26.668Z,51.50
2022-08-17T12:40:58.480Z,52.57
2022-08-17T12:43:29.226Z,52.35
2022-08-17T12:45:59.480Z,52.23
2022-08-17T12:48:28.485Z,51.86
2022-08-17T12:51:03.363Z,51.68
2022-08-17T12:53:32.609Z,51.40
2022-08-17T12:56:00.692Z,46.78
2022-08-17T12:58:35.079Z,42.73
2022-08-17T13:01:09.500Z,39.20
2022-08-17T13:03:40.305Z,38.38
2022-08-17T13:06:14.924Z,37.34
2022-08-17T13:08:44.532Z,36.29
2022-08-17T13:11:14.076Z,35.84
2022-08-17T13:13:44.570Z,35.29
2022-08-17T13:16:17.055Z,35.41
2022-08-17T13:18:46.607Z,35.22
2022-08-17T13:21:26.750Z,34.94
2022-08-17T13:24:04.580Z,34.39
2022-08-17T13:26:43.456Z,33.88
2022-08-17T13:29:31.032Z,33.55
2022-08-17T13:32:11.536Z,33.40
2022-08-17T13:35:12.340Z,32.89
2022-08-17T13:37:36.868Z,33.32
2022-08-17T13:40:09.612Z,34.91
2022-08-17T13:42:50.342Z,35.61
2022-08-17T13:45:36.269Z,34.52
2022-08-17T13:48:22.328Z,33.16
2022-08-17T13:50:52.274Z,32.95
2022-08-17T13:53:22.164Z,32.61
2022-08-17T13:55:51.931Z,32.22
2022-08-17T13:58:26.851Z,32.04
2022-08-17T14:00:53.841Z,31.98
2022-08-17T14:03:20.764Z,31.95
2022-08-17T14:05:50.128Z,32.03
2022-08-17T14:08:18.960Z,32.11
2022-08-17T14:10:57.780Z,31.15
2022-08-17T14:13:24.391Z,32.07
2022-08-17T14:15:55.725Z,31.23
2022-08-17T14:18:55.329Z,31.58
2022-08-17T14:21:10.322Z,30.98
2022-08-17T14:23:37.165Z,31.08
2022-08-17T14:26:04.238Z,30.56
2022-08-17T14:28:30.970Z,30.90
2022-08-17T14:31:00.397Z,31.13
2022-08-17T14:33:28.663Z,30.65
2022-08-17T14:35:55.865Z,30.67
2022-08-17T14:38:22.471Z,30.69
2022-08-17T14:40:49.257Z,30.82
2022-08-17T14:43:15.974Z,29.52
2022-08-17T14:45:43.438Z,30.51
2022-08-17T14:48:10.592Z,30.64
2022-08-17T14:50:41.029Z,30.66
2022-08-17T14:53:10.398Z,30.26
2022-08-17T14:55:39.905Z,30.41
2022-08-17T14:58:07.563Z,29.08
2022-08-17T15:00:34.808Z,30.14
2022-08-17T15:03:02.076Z,28.61
2022-08-17T15:05:36.499Z,30.01
2022-08-17T15:08:05.455Z,29.44
2022-08-17T15:10:32.774Z,29.89
2022-08-17T15:13:00.454Z,29.68
2022-08-17T15:15:28.507Z,29.34
2022-08-17T15:17:55.302Z,29.61
2022-08-17T15:20:28.069Z,29.57
2022-08-17T15:22:57.169Z,29.56
2022-08-17T15:25:26.192Z,29.56
2022-08-17T15:27:53.732Z,29.05
2022-08-17T15:30:20.860Z,28.93
2022-08-17T15:32:54.407Z,29.31
2022-08-17T15:35:29.105Z,28.93
2022-08-17T15:38:11.603Z,29.13
2022-08-17T15:40:44.550Z,28.87
2022-08-17T15:43:20.115Z,28.14
2022-08-17T15:46:01.133Z,28.31
2022-08-17T15:48:41.466Z,28.69
2022-08-17T15:51:08.337Z,28.77
2022-08-17T15:53:35.910Z,28.68
2022-08-17T15:56:03.466Z,28.57
2022-08-17T15:58:33.609Z,28.28
2022-08-17T16:01:15.175Z,28.44
2022-08-17T16:04:04.292Z,27.59
2022-08-17T16:06:34.609Z,28.43
2022-08-17T16:09:01.373Z,28.38
2022-08-17T16:11:28.033Z,28.11
2022-08-17T16:13:56.109Z,28.05
2022-08-17T16:16:23.715Z,27.42
2022-08-17T16:18:54.686Z,28.05
2022-08-17T16:21:31.215Z,28.05
2022-08-17T16:24:13.293Z,27.66
2022-08-17T16:26:42.335Z,27.80
2022-08-17T16:29:09.184Z,27.92
2022-08-17T16:31:37.652Z,27.56
2022-08-17T16:34:17.457Z,27.83
2022-08-17T16:36:53.598Z,26.66
2022-08-17T16:39:27.221Z,27.57
2022-08-17T16:41:55.682Z,27.64
2022-08-17T16:44:22.242Z,27.36
2022-08-17T16:46:50.174Z,27.60
2022-08-17T16:49:29.639Z,27.54
2022-08-17T16:52:04.540Z,27.48
2022-08-17T16:54:31.154Z,27.21
2022-08-17T16:56:57.750Z,27.21
2022-08-17T16:59:30.978Z,25.70
2022-08-17T17:02:11.298Z,27.14
2022-08-17T17:04:46.180Z,27.05
2022-08-17T17:07:39.892Z,26.95
2022-08-17T17:10:14.661Z,26.85
2022-08-17T17:13:02.939Z,26.75
2022-08-17T17:15:39.617Z,26.72
2022-08-17T17:18:12.080Z,26.71
2022-08-17T17:20:47.700Z,26.32
2022-08-17T17:23:41.208Z,26.56
2022-08-17T17:26:52.806Z,26.46
2022-08-17T17:29:46.481Z,26.36
2022-08-17T17:32:32.377Z,25.75
2022-08-17T17:35:08.879Z,25.97
2022-08-17T17:37:36.347Z,26.16
2022-08-17T17:40:09.520Z,25.99
2022-08-17T17:42:42.203Z,26.09
2022-08-17T17:45:15.957Z,26.05
2022-08-17T17:47:43.393Z,25.98
2022-08-17T17:50:10.606Z,25.95
2022-08-17T17:52:45.294Z,25.89
2022-08-17T17:55:24.260Z,25.29
2022-08-17T17:58:07.376Z,25.32
2022-08-17T18:00:48.368Z,25.76
2022-08-17T18:03:17.670Z,25.77
2022-08-17T18:06:02.661Z,25.74
2022-08-17T18:08:58.518Z,25.68
2022-08-17T18:11:58.972Z,25.63
2022-08-17T18:14:48.980Z,25.60
2022-08-17T18:17:15.572Z,25.41
2022-08-17T18:19:42.803Z,25.27
2022-08-17T18:22:14.650Z,25.09
2022-08-17T18:24:46.002Z,23.81
2022-08-17T18:27:26.666Z,25.31
2022-08-17T18:29:58.473Z,25.31
2022-08-17T18:32:28.804Z,25.26
2022-08-17T18:35:09.070Z,24.95
2022-08-17T18:37:40.185Z,25.17
2022-08-17T18:40:16.092Z,25.13
2022-08-17T18:42:45.786Z,25.08
2022-08-17T18:45:13.492Z,25.01
2022-08-17T18:47:55.483Z,24.87
2022-08-17T18:50:26.585Z,24.83
2022-08-17T18:52:55.196Z,24.53
2022-08-17T18:55:25.308Z,24.79
2022-08-17T18:57:56.529Z,24.77
2022-08-17T19:00:38.203Z,24.65
2022-08-17T19:03:17.831Z,24.73
2022-08-17T19:05:46.238Z,24.72
2022-08-17T19:08:21.824Z,24.71
2022-08-17T19:10:59.348Z,23.77
2022-08-17T19:13:30.746Z,23.46
2022-08-17T19:16:21.454Z,24.54
2022-08-17T19:18:53.316Z,24.59
2022-08-17T19:21:37.585Z,24.46
2022-08-17T19:24:10.287Z,24.43
2022-08-17T19:26:54.709Z,23.83
2022-08-17T19:29:31.191Z,24.36
2022-08-17T19:31:59.780Z,24.33
2022-08-17T19:34:33.388Z,24.27
2022-08-17T19:37:20.868Z,24.16
2022-08-17T19:40:09.227Z,23.42
2022-08-17T19:42:47.702Z,23.95
2022-08-17T19:45:33.052Z,24.06
2022-08-17T19:48:13.512Z,24.03
2022-08-17T19:50:58.728Z,23.52
2022-08-17T19:54:05.513Z,24.01
2022-08-17T19:56:55.448Z,23.99
2022-08-17T19:59:54.091Z,23.97
2022-08-17T20:03:00.069Z,23.93
2022-08-17T20:05:48.747Z,23.77
2022-08-17T20:08:27.194Z,23.04
2022-08-17T20:10:59.444Z,23.83
2022-08-17T20:13:36.515Z,23.18
2022-08-17T20:16:05.111Z,23.64
2022-08-17T20:18:47.669Z,23.54
2022-08-17T20:21:20.757Z,23.13
2022-08-17T20:24:00.384Z,23.35
2022-08-17T20:26:55.906Z,23.29
2022-08-17T20:29:37.638Z,23.26
2022-08-17T20:32:18.125Z,23.20
2022-08-17T20:34:47.298Z,23.19
2022-08-17T20:37:14.254Z,23.22
2022-08-17T20:40:05.930Z,23.22
2022-08-17T20:42:33.861Z,23.08
2022-08-17T20:45:26.352Z,23.07
2022-08-17T20:48:35.067Z,22.76
2022-08-17T20:50:56.351Z,23.10
2022-08-17T20:53:47.960Z,23.02
2022-08-17T20:56:43.093Z,22.95
2022-08-17T20:59:31.423Z,22.94
2022-08-17T21:02:17.630Z,22.94
2022-08-17T21:04:52.856Z,22.92
2022-08-17T21:07:29.224Z,22.87
2022-08-17T21:10:19.813Z,22.82
2022-08-17T21:12:53.785Z,22.61
2022-08-17T21:15:28.475Z,22.75
2022-08-17T21:18:23.359Z,22.68
2022-08-17T21:21:34.047Z,22.64
2022-08-17T21:24:26.440Z,22.60
2022-08-17T21:27:00.157Z,22.59
2022-08-17T21:29:32.368Z,22.58
2022-08-17T21:32:03.377Z,22.61
2022-08-17T21:34:44.814Z,22.37
2022-08-17T21:37:20.552Z,22.64
2022-08-17T21:40:00.719Z,22.44
2022-08-17T21:42:32.591Z,22.51
2022-08-17T21:45:11.814Z,22.00
2022-08-17T21:47:43.668Z,21.68
2022-08-17T21:50:19.379Z,22.44
2022-08-17T21:52:48.486Z,21.10
2022-08-17T21:55:29.832Z,22.44
2022-08-17T21:58:13.819Z,22.46
2022-08-17T22:00:41.320Z,22.25
2022-08-17T22:03:23.205Z,22.50
2022-08-17T22:05:51.469Z,22.49
2022-08-17T22:08:23.716Z,21.95
2022-08-17T22:11:00.124Z,21.83
2022-08-17T22:13:29.329Z,21.68
2022-08-17T22:16:15.496Z,22.33
2022-08-17T22:18:53.829Z,22.32
2022-08-17T22:21:22.622Z,22.15
2022-08-17T22:24:23.169Z,22.36
2022-08-17T22:27:02.112Z,22.34
2022-08-17T22:29:54.302Z,22.34
2022-08-17T22:32:44.868Z,22.28
2022-08-17T22:35:34.728Z,22.25
2022-08-17T22:38:19.712Z,22.26
2022-08-17T22:40:52.485Z,22.27
2022-08-17T22:43:25.893Z,22.27
2022-08-17T22:45:57.957Z,22.26
2022-08-17T22:48:28.061Z,22.22
2022-08-17T22:51:12.622Z,22.22
2022-08-17T22:54:11.728Z,22.15
2022-08-17T22:57:05.523Z,22.18
2022-08-17T22:59:48.811Z,22.16
2022-08-17T23:02:21.090Z,22.14
2022-08-17T23:04:51.643Z,21.88
2022-08-17T23:07:20.039Z,21.38
2022-08-17T23:09:46.766Z,21.97
2022-08-17T23:12:23.147Z,21.89
2022-08-17T23:14:58.368Z,21.91
2022-08-17T23:17:25.038Z,21.92
2022-08-17T23:19:51.781Z,21.27
2022-08-17T23:22:18.359Z,21.82
2022-08-17T23:24:48.831Z,21.79
2022-08-17T23:27:15.352Z,21.02
2022-08-17T23:29:42.195Z,21.77
2022-08-17T23:32:14.812Z,21.73
2022-08-17T23:34:43.291Z,21.70
2022-08-17T23:37:11.232Z,21.67
2022-08-17T23:39:39.334Z,20.92
2022-08-17T23:42:08.660Z,21.33
2022-08-17T23:44:37.089Z,21.61
2022-08-17T23:47:04.858Z,20.69
2022-08-17T23:49:32.184Z,21.53
2022-08-17T23:52:01.665Z,21.38
2022-08-17T23:54:28.241Z,21.58
2022-08-17T23:56:54.851Z,21.57
2022-08-17T23:59:22.930Z,21.57
